createdAt,value
2024-01-22T00:00:55.086Z,96165.00
2024-01-22T00:01:55.033Z,96163.00
2024-01-22T00:02:55.143Z,96165.00
2024-01-22T00:03:55.158Z,96166.00
2024-01-22T00:04:55.230Z,96165.00
2024-01-22T00:05:55.383Z,96164.00
2024-01-22T00:06:55.363Z,96163.00
2024-01-22T00:07:55.369Z,96161.00
2024-01-22T00:08:55.457Z,96160.00
2024-01-22T00:09:55.511Z,96159.00
2024-01-22T00:10:55.555Z,96158.00
2024-01-22T00:11:55.675Z,96159.00
2024-01-22T00:12:55.718Z,96157.00
2024-01-22T00:13:55.775Z,96152.00
2024-01-22T00:14:55.915Z,96154.00
2024-01-22T00:15:55.916Z,96152.00
2024-01-22T00:16:55.953Z,96153.00
2024-01-22T00:17:56.089Z,96151.00
2024-01-22T00:18:56.272Z,96151.00
2024-01-22T00:19:56.250Z,96151.00
2024-01-22T00:20:56.230Z,96148.00
2024-01-22T00:21:56.273Z,96146.00
2024-01-22T00:22:56.335Z,96146.00
2024-01-22T00:23:56.414Z,96147.00
2024-01-22T00:24:56.447Z,96147.00
2024-01-22T00:25:56.502Z,96145.00
2024-01-22T00:26:56.614Z,96146.00
2024-01-22T00:27:56.736Z,96144.00
2024-01-22T00:28:56.696Z,96139.00
2024-01-22T00:29:56.777Z,96139.00
2024-01-22T00:30:56.806Z,96135.00
2024-01-22T00:31:56.845Z,96135.00
2024-01-22T00:32:57.047Z,96134.00
2024-01-22T00:33:57.043Z,96137.00
2024-01-22T00:34:57.099Z,96142.00
2024-01-22T00:35:57.116Z,96143.00
2024-01-22T00:36:57.195Z,96141.00
2024-01-22T00:37:57.268Z,96136.00
2024-01-22T00:38:57.356Z,96133.00
2024-01-22T00:39:57.375Z,96132.00
2024-01-22T00:40:57.456Z,96131.00
2024-01-22T00:41:57.518Z,96130.00
2024-01-22T00:42:57.554Z,96132.00
2024-01-22T00:43:57.608Z,96133.00
2024-01-22T00:44:57.703Z,96131.00
2024-01-22T00:45:57.697Z,96130.00
2024-01-22T00:46:57.792Z,96128.00
2024-01-22T00:47:57.892Z,96128.00
2024-01-22T00:48:57.968Z,96127.00
2024-01-22T00:49:57.976Z,96126.00
2024-01-22T00:50:58.066Z,96124.00
2024-01-22T00:51:58.098Z,96122.00
2024-01-22T00:52:58.169Z,96121.00
2024-01-22T00:53:58.297Z,96119.00
2024-01-22T00:54:58.271Z,96117.00
2024-01-22T00:55:58.347Z,96116.00
2024-01-22T00:56:58.440Z,96115.00
2024-01-22T00:57:58.446Z,96114.00
2024-01-22T00:58:58.539Z,96112.00
2024-01-22T00:59:58.690Z,96109.00
2024-01-22T01:00:58.701Z,96108.00
2024-01-22T01:01:58.753Z,96105.00
2024-01-22T01:02:58.898Z,96105.00
2024-01-22T01:03:58.877Z,96104.00
2024-01-22T01:04:58.939Z,96102.00
2024-01-22T01:05:58.990Z,96102.00
2024-01-22T01:06:59.042Z,96097.00
2024-01-22T01:07:59.108Z,96097.00
2024-01-22T01:08:59.157Z,96098.00
2024-01-22T01:09:59.188Z,96098.00
2024-01-22T01:10:59.287Z,96092.00
2024-01-22T01:11:59.394Z,96090.00
2024-01-22T01:12:59.382Z,96093.00
2024-01-22T01:13:59.431Z,96095.00
2024-01-22T01:14:59.532Z,96093.00
2024-01-22T01:15:59.579Z,96091.00
2024-01-22T01:16:59.650Z,96092.00
2024-01-22T01:17:59.847Z,96094.00
2024-01-22T01:18:59.905Z,96094.00
2024-01-22T01:19:59.841Z,96095.00
2024-01-22T01:20:59.929Z,96098.00
2024-01-22T01:21:59.955Z,96098.00
2024-01-22T01:23:00.033Z,96100.00
2024-01-22T01:24:00.156Z,96098.00
2024-01-22T01:25:00.238Z,96096.00
2024-01-22T01:26:00.233Z,96096.00
2024-01-22T01:27:00.323Z,96100.00
2024-01-22T01:28:00.411Z,96102.00
2024-01-22T01:29:00.442Z,96103.00
2024-01-22T01:30:00.619Z,96100.00
2024-01-22T01:31:00.588Z,96099.00
2024-01-22T01:32:00.659Z,96099.00
2024-01-22T01:33:00.851Z,96097.00
2024-01-22T01:34:00.938Z,96096.00
2024-01-22T01:35:00.850Z,96097.00
2024-01-22T01:36:00.931Z,96093.00
2024-01-22T01:37:01.007Z,96092.00
2024-01-22T01:38:01.077Z,96092.00
2024-01-22T01:39:01.184Z,96091.00
2024-01-22T01:40:01.268Z,96090.00
2024-01-22T01:41:01.299Z,96089.00
2024-01-22T01:42:01.438Z,96090.00
2024-01-22T01:43:01.391Z,96090.00
2024-01-22T01:44:01.476Z,96094.00
2024-01-22T01:45:01.641Z,96098.00
2024-01-22T01:46:01.666Z,96097.00
2024-01-22T01:47:01.716Z,96097.00
2024-01-22T01:48:01.882Z,96092.00
2024-01-22T01:49:02.046Z,96089.00
2024-01-22T01:50:01.942Z,96088.00
2024-01-22T01:51:02.134Z,96087.00
2024-01-22T01:52:02.067Z,96088.00
2024-01-22T01:53:02.116Z,96088.00
2024-01-22T01:54:02.230Z,96088.00
2024-01-22T01:55:02.226Z,96087.00
2024-01-22T01:56:02.332Z,96084.00
2024-01-22T01:57:02.464Z,96083.00
2024-01-22T01:58:05.846Z,96080.00
2024-01-22T01:59:02.471Z,96079.00
2024-01-22T02:00:02.681Z,96077.00
2024-01-22T02:01:02.654Z,96078.00
2024-01-22T02:02:02.471Z,96080.00
2024-01-22T02:03:02.574Z,96084.00
2024-01-22T02:04:02.514Z,96083.00
2024-01-22T02:05:02.495Z,96083.00
2024-01-22T02:06:02.575Z,96082.00
2024-01-22T02:07:02.465Z,96082.00
2024-01-22T02:08:02.493Z,96082.00
2024-01-22T02:09:02.535Z,96083.00
2024-01-22T02:10:02.466Z,96085.00
2024-01-22T02:11:02.468Z,96084.00
2024-01-22T02:12:02.542Z,96079.00
2024-01-22T02:13:02.483Z,96080.00
2024-01-22T02:14:02.473Z,96080.00
2024-01-22T02:15:02.487Z,96077.00
2024-01-22T02:16:02.511Z,96076.00
2024-01-22T02:17:02.493Z,96077.00
2024-01-22T02:18:02.668Z,96079.00
2024-01-22T02:19:02.555Z,96081.00
2024-01-22T02:20:02.477Z,96081.00
2024-01-22T02:21:02.541Z,96077.00
2024-01-22T02:22:02.589Z,96076.00
2024-01-22T02:23:02.625Z,96076.00
2024-01-22T02:24:02.742Z,96074.00
2024-01-22T02:25:02.773Z,96073.00
2024-01-22T02:26:02.834Z,96072.00
2024-01-22T02:27:02.986Z,96070.00
2024-01-22T02:28:03.193Z,96071.00
2024-01-22T02:29:03.079Z,96074.00
2024-01-22T02:30:03.142Z,96072.00
2024-01-22T02:31:03.197Z,96065.00
2024-01-22T02:32:03.275Z,96059.00
2024-01-22T02:33:03.457Z,96056.00
2024-01-22T02:34:03.585Z,96056.00
2024-01-22T02:35:03.460Z,96055.00
2024-01-22T02:36:04.224Z,96057.00
2024-01-22T02:37:03.622Z,96056.00
2024-01-22T02:38:03.686Z,96052.00
2024-01-22T02:39:03.767Z,96049.00
2024-01-22T02:40:03.787Z,96053.00
2024-01-22T02:41:03.885Z,96056.00
2024-01-22T02:42:03.996Z,96054.00
2024-01-22T02:43:03.971Z,96052.00
2024-01-22T02:44:04.061Z,96054.00
2024-01-22T02:45:04.251Z,96047.00
2024-01-22T02:46:04.187Z,96050.00
2024-01-22T02:47:04.279Z,96050.00
2024-01-22T02:48:04.460Z,96051.00
2024-01-22T02:49:04.569Z,96052.00
2024-01-22T02:50:04.484Z,96052.00
2024-01-22T02:51:04.559Z,96051.00
2024-01-22T02:52:04.632Z,96052.00
2024-01-22T02:53:04.654Z,96054.00
2024-01-22T02:54:04.835Z,96055.00
2024-01-22T02:55:04.821Z,96055.00
2024-01-22T02:56:04.900Z,96055.00
2024-01-22T02:57:05.020Z,96054.00
2024-01-22T02:58:05.036Z,96053.00
2024-01-22T02:59:05.137Z,96053.00
2024-01-22T03:00:05.255Z,96050.00
2024-01-22T03:01:05.336Z,96048.00
2024-01-22T03:02:05.329Z,96047.00
2024-01-22T03:03:05.407Z,96046.00
2024-01-22T03:04:05.501Z,96044.00
2024-01-22T03:05:05.557Z,96043.00
2024-01-22T03:06:05.677Z,96042.00
2024-01-22T03:07:05.756Z,96044.00
2024-01-22T03:08:05.726Z,96045.00
2024-01-22T03:09:05.825Z,96040.00
2024-01-22T03:10:06.607Z,96041.00
2024-01-22T03:11:05.973Z,96036.00
2024-01-22T03:12:06.111Z,96033.00
2024-01-22T03:13:06.054Z,96034.00
2024-01-22T03:14:06.158Z,96029.00
2024-01-22T03:15:06.317Z,96029.00
2024-01-22T03:16:06.325Z,96029.00
2024-01-22T03:17:06.372Z,96029.00
2024-01-22T03:18:06.521Z,96032.00
2024-01-22T03:19:06.660Z,96034.00
2024-01-22T03:20:06.574Z,96035.00
2024-01-22T03:21:06.733Z,96032.00
2024-01-22T03:22:06.709Z,96030.00
2024-01-22T03:23:06.759Z,96028.00
2024-01-22T03:24:06.851Z,96030.00
2024-01-22T03:25:06.850Z,96032.00
2024-01-22T03:26:06.955Z,96031.00
2024-01-22T03:27:07.068Z,96031.00
2024-01-22T03:28:07.044Z,96032.00
2024-01-22T03:29:07.137Z,96030.00
2024-01-22T03:30:07.283Z,96027.00
2024-01-22T03:31:07.246Z,96028.00
2024-01-22T03:32:07.317Z,96028.00
2024-01-22T03:33:07.443Z,96028.00
2024-01-22T03:34:07.537Z,96023.00
2024-01-22T03:35:07.459Z,96019.00
2024-01-22T03:36:07.543Z,96016.00
2024-01-22T03:37:07.590Z,96015.00
2024-01-22T03:38:07.629Z,96020.00
2024-01-22T03:39:10.222Z,96019.00
2024-01-22T03:40:07.713Z,96016.00
2024-01-22T03:41:07.685Z,96011.00
2024-01-22T03:42:07.740Z,96006.00
2024-01-22T03:43:07.708Z,96005.00
2024-01-22T03:44:07.685Z,96004.00
2024-01-22T03:45:07.765Z,96004.00
2024-01-22T03:46:07.718Z,96004.00
2024-01-22T03:47:07.677Z,96006.00
2024-01-22T03:48:07.794Z,96006.00
2024-01-22T03:49:07.808Z,96003.00
2024-01-22T03:50:07.765Z,95999.00
2024-01-22T03:51:07.777Z,95999.00
2024-01-22T03:52:07.719Z,96000.00
2024-01-22T03:53:07.695Z,96001.00
2024-01-22T03:54:07.740Z,96001.00
2024-01-22T03:55:07.700Z,96002.00
2024-01-22T03:56:07.727Z,95997.00
2024-01-22T03:57:07.793Z,95994.00
2024-01-22T03:58:07.737Z,95994.00
2024-01-22T03:59:07.705Z,95991.00
2024-01-22T04:00:07.757Z,95994.00
2024-01-22T04:01:07.771Z,95992.00
2024-01-22T04:02:07.713Z,95993.00
2024-01-22T04:03:07.774Z,95993.00
2024-01-22T04:04:07.755Z,95997.00
2024-01-22T04:05:07.735Z,95997.00
2024-01-22T04:06:07.833Z,95991.00
2024-01-22T04:07:07.829Z,95994.00
2024-01-22T04:08:07.723Z,95993.00
2024-01-22T04:09:07.747Z,95996.00
2024-01-22T04:10:07.724Z,95996.00
2024-01-22T04:11:07.712Z,95996.00
2024-01-22T04:12:07.771Z,95999.00
2024-01-22T04:13:07.744Z,95996.00
2024-01-22T04:14:07.769Z,95991.00
2024-01-22T04:15:07.857Z,95984.00
2024-01-22T04:16:07.913Z,95985.00
2024-01-22T04:17:07.973Z,95985.00
2024-01-22T04:18:08.218Z,95990.00
2024-01-22T04:19:08.229Z,95991.00
2024-01-22T04:20:08.212Z,95993.00
2024-01-22T04:21:08.299Z,95992.00
2024-01-22T04:22:08.333Z,95989.00
2024-01-22T04:23:08.416Z,95990.00
2024-01-22T04:24:08.576Z,95986.00
2024-01-22T04:25:08.524Z,95984.00
2024-01-22T04:26:08.570Z,95987.00
2024-01-22T04:27:08.704Z,95989.00
2024-01-22T04:28:08.694Z,95992.00
2024-01-22T04:29:08.728Z,95991.00
2024-01-22T04:30:08.835Z,95992.00
2024-01-22T04:31:08.878Z,95994.00
2024-01-22T04:32:09.006Z,95995.00
2024-01-22T04:33:09.115Z,95993.00
2024-01-22T04:34:09.086Z,95994.00
2024-01-22T04:35:09.048Z,95995.00
2024-01-22T04:36:09.168Z,95993.00
2024-01-22T04:37:09.140Z,95992.00
2024-01-22T04:38:09.209Z,95992.00
2024-01-22T04:39:09.254Z,95992.00
2024-01-22T04:40:09.287Z,95994.00
2024-01-22T04:41:09.361Z,95993.00
2024-01-22T04:42:09.422Z,95988.00
2024-01-22T04:43:09.444Z,95991.00
2024-01-22T04:44:09.471Z,95993.00
2024-01-22T04:45:09.605Z,95989.00
2024-01-22T04:46:09.532Z,95985.00
2024-01-22T04:47:09.590Z,95985.00
2024-01-22T04:48:16.981Z,95993.00
2024-01-22T04:49:16.951Z,95996.00
2024-01-22T04:50:16.911Z,95997.00
2024-01-22T04:51:16.967Z,95993.00
2024-01-22T04:52:16.931Z,95993.00
2024-01-22T04:53:16.902Z,95989.00
2024-01-22T04:54:16.957Z,95986.00
2024-01-22T04:55:21.173Z,95985.00
2024-01-22T04:56:17.921Z,95986.00
2024-01-22T04:57:16.969Z,95984.00
2024-01-22T04:58:16.956Z,95983.00
2024-01-22T04:59:16.944Z,95980.00
2024-01-22T05:00:16.957Z,95977.00
2024-01-22T05:01:16.961Z,95977.00
2024-01-22T05:02:16.925Z,95974.00
2024-01-22T05:03:17.044Z,95973.00
2024-01-22T05:04:16.993Z,95973.00
2024-01-22T05:05:17.097Z,95974.00
2024-01-22T05:06:17.037Z,95977.00
2024-01-22T05:07:16.896Z,95974.00
2024-01-22T05:08:16.925Z,95970.00
2024-01-22T05:09:16.965Z,95972.00
2024-01-22T05:10:16.947Z,95975.00
2024-01-22T05:11:16.924Z,95981.00
2024-01-22T05:12:16.952Z,95979.00
2024-01-22T05:13:16.932Z,95977.00
2024-01-22T05:14:16.910Z,95977.00
2024-01-22T05:15:17.123Z,95977.00
2024-01-22T05:16:16.916Z,95972.00
2024-01-22T05:17:16.938Z,95966.00
2024-01-22T05:18:17.568Z,95965.00
2024-01-22T05:19:17.062Z,95968.00
2024-01-22T05:20:16.969Z,95972.00
2024-01-22T05:21:17.092Z,95971.00
2024-01-22T05:22:17.032Z,95968.00
2024-01-22T05:23:17.058Z,95968.00
2024-01-22T05:24:17.173Z,95967.00
2024-01-22T05:25:17.045Z,95961.00
2024-01-22T05:26:17.083Z,95964.00
2024-01-22T05:27:17.227Z,95963.00
2024-01-22T05:28:17.135Z,95962.00
2024-01-22T05:29:17.126Z,95961.00
2024-01-22T05:30:17.280Z,95956.00
2024-01-22T05:31:17.170Z,95956.00
2024-01-22T05:32:17.203Z,95954.00
2024-01-22T05:33:17.277Z,95956.00
2024-01-22T05:34:17.334Z,95957.00
2024-01-22T05:35:17.217Z,95956.00
2024-01-22T05:36:17.352Z,95953.00
2024-01-22T05:37:17.246Z,95953.00
2024-01-22T05:38:17.281Z,95949.00
2024-01-22T05:39:17.333Z,95943.00
2024-01-22T05:40:17.264Z,95942.00
2024-01-22T05:41:17.268Z,95944.00
2024-01-22T05:42:17.335Z,95943.00
2024-01-22T05:43:17.333Z,95943.00
2024-01-22T05:44:18.017Z,95942.00
2024-01-22T05:45:17.485Z,95946.00
2024-01-22T05:46:17.319Z,95948.00
2024-01-22T05:47:17.336Z,95940.00
2024-01-22T05:48:17.550Z,95937.00
2024-01-22T05:49:17.477Z,95936.00
2024-01-22T05:50:17.350Z,95932.00
2024-01-22T05:51:17.485Z,95929.00
2024-01-22T05:52:17.412Z,95927.00
2024-01-22T05:53:17.452Z,95929.00
2024-01-22T05:54:17.422Z,95931.00
2024-01-22T05:55:19.483Z,95932.00
2024-01-22T05:56:17.495Z,95934.00
2024-01-22T05:57:17.581Z,95928.00
2024-01-22T05:58:17.582Z,95924.00
2024-01-22T05:59:17.613Z,95925.00
2024-01-22T06:00:17.737Z,95929.00
2024-01-22T06:01:18.781Z,95922.00
2024-01-22T06:02:17.799Z,95919.00
2024-01-22T06:03:17.946Z,95919.00
2024-01-22T06:04:17.994Z,95921.00
2024-01-22T06:05:17.941Z,95917.00
2024-01-22T06:06:18.059Z,95919.00
2024-01-22T06:07:18.133Z,95923.00
2024-01-22T06:08:18.096Z,95922.00
2024-01-22T06:09:18.251Z,95919.00
2024-01-22T06:10:18.300Z,95915.00
2024-01-22T06:11:18.199Z,95914.00
2024-01-22T06:12:18.305Z,95916.00
2024-01-22T06:13:18.260Z,95915.00
2024-01-22T06:14:18.288Z,95913.00
2024-01-22T06:15:18.382Z,95910.00
2024-01-22T06:16:18.332Z,95911.00
2024-01-22T06:17:18.374Z,95909.00
2024-01-22T06:18:18.442Z,95912.00
2024-01-22T06:19:18.465Z,95911.00
2024-01-22T06:20:18.441Z,95915.00
2024-01-22T06:21:18.497Z,95918.00
2024-01-22T06:22:18.605Z,95915.00
2024-01-22T06:23:18.570Z,95913.00
2024-01-22T06:24:18.748Z,95917.00
2024-01-22T06:25:18.575Z,95909.00
2024-01-22T06:26:18.865Z,95912.00
2024-01-22T06:27:18.806Z,95919.00
2024-01-22T06:28:18.635Z,95920.00
2024-01-22T06:29:18.613Z,95916.00
2024-01-22T06:30:18.707Z,95911.00
2024-01-22T06:31:18.758Z,95908.00
2024-01-22T06:32:18.802Z,95915.00
2024-01-22T06:33:18.879Z,95908.00
2024-01-22T06:34:19.025Z,95909.00
2024-01-22T06:35:18.764Z,95912.00
2024-01-22T06:36:19.000Z,95918.00
2024-01-22T06:37:18.890Z,95928.00
2024-01-22T06:38:18.945Z,95922.00
2024-01-22T06:39:19.155Z,95920.00
2024-01-22T06:40:19.079Z,95916.00
2024-01-22T06:41:19.149Z,95923.00
2024-01-22T06:42:27.465Z,95924.00
2024-01-22T06:43:20.233Z,95924.00
2024-01-22T06:44:21.122Z,95922.00
2024-01-22T06:45:19.259Z,95924.00
2024-01-22T06:46:19.235Z,95922.00
2024-01-22T06:47:19.223Z,95915.00
2024-01-22T06:48:19.369Z,95901.00
2024-01-22T06:49:19.498Z,95906.00
2024-01-22T06:50:19.281Z,95911.00
2024-01-22T06:51:27.011Z,95906.00
2024-01-22T06:52:20.255Z,95915.00
2024-01-22T06:53:19.257Z,95901.00
2024-01-22T06:54:20.857Z,95905.00
2024-01-22T06:55:19.219Z,95905.00
2024-01-22T06:56:19.220Z,95902.00
2024-01-22T06:57:19.368Z,95899.00
2024-01-22T06:58:19.227Z,95897.00
2024-01-22T06:59:19.241Z,95902.00
2024-01-22T07:00:19.275Z,95898.00
2024-01-22T07:01:19.282Z,95897.00
2024-01-22T07:02:19.246Z,95897.00
2024-01-22T07:03:19.267Z,95893.00
2024-01-22T07:04:19.296Z,95893.00
2024-01-22T07:05:19.308Z,95896.00
2024-01-22T07:06:22.231Z,95894.00
2024-01-22T07:07:19.256Z,95894.00
2024-01-22T07:08:19.279Z,95897.00
2024-01-22T07:09:19.284Z,95889.00
2024-01-22T07:10:19.257Z,95884.00
2024-01-22T07:11:19.258Z,95887.00
2024-01-22T07:12:19.317Z,95891.00
2024-01-22T07:13:19.277Z,95898.00
2024-01-22T07:14:19.263Z,95896.00
2024-01-22T07:15:19.461Z,95898.00
2024-01-22T07:16:19.254Z,95895.00
2024-01-22T07:17:19.248Z,95891.00
2024-01-22T07:18:19.483Z,95891.00
2024-01-22T07:19:19.445Z,95887.00
2024-01-22T07:20:19.273Z,95886.00
2024-01-22T07:21:19.427Z,95890.00
2024-01-22T07:22:19.285Z,95894.00
2024-01-22T07:23:19.288Z,95886.00
2024-01-22T07:24:19.362Z,95879.00
2024-01-22T07:25:19.266Z,95883.00
2024-01-22T07:26:19.252Z,95879.00
2024-01-22T07:27:19.324Z,95880.00
2024-01-22T07:28:19.599Z,95880.00
2024-01-22T07:29:19.288Z,95882.00
2024-01-22T07:30:19.330Z,95879.00
2024-01-22T07:31:19.305Z,95880.00
2024-01-22T07:32:19.269Z,95877.00
2024-01-22T07:33:19.392Z,95876.00
2024-01-22T07:34:19.443Z,95873.00
2024-01-22T07:35:19.361Z,95875.00
2024-01-22T07:36:19.529Z,95867.00
2024-01-22T07:37:19.548Z,95862.00
2024-01-22T07:38:19.527Z,95860.00
2024-01-22T07:39:19.649Z,95863.00
2024-01-22T07:40:19.644Z,95866.00
2024-01-22T07:41:19.692Z,95863.00
2024-01-22T07:42:19.753Z,95858.00
2024-01-22T07:43:19.733Z,95862.00
2024-01-22T07:44:19.738Z,95860.00
2024-01-22T07:45:20.941Z,95861.00
2024-01-22T07:46:19.851Z,95864.00
2024-01-22T07:47:21.568Z,95858.00
2024-01-22T07:48:19.934Z,95854.00
2024-01-22T07:49:19.957Z,95847.00
2024-01-22T07:50:19.831Z,95854.00
2024-01-22T07:51:19.946Z,95857.00
2024-01-22T07:52:19.842Z,95861.00
2024-01-22T07:53:19.830Z,95854.00
2024-01-22T07:54:19.849Z,95844.00
2024-01-22T07:55:19.931Z,95835.00
2024-01-22T07:56:19.837Z,95837.00
2024-01-22T07:57:19.896Z,95845.00
2024-01-22T07:58:19.843Z,95846.00
2024-01-22T07:59:19.863Z,95843.00
2024-01-22T08:00:19.868Z,95834.00
2024-01-22T08:01:19.909Z,95831.00
2024-01-22T08:02:19.860Z,95842.00
2024-01-22T08:03:19.920Z,95841.00
2024-01-22T08:04:19.883Z,95843.00
2024-01-22T08:05:19.856Z,95839.00
2024-01-22T08:06:19.899Z,95833.00
2024-01-22T08:07:20.895Z,95825.00
2024-01-22T08:08:19.845Z,95823.00
2024-01-22T08:09:19.948Z,95827.00
2024-01-22T08:10:19.849Z,95832.00
2024-01-22T08:11:19.848Z,95831.00
2024-01-22T08:12:19.951Z,95832.00
2024-01-22T08:13:19.833Z,95829.00
2024-01-22T08:14:19.836Z,95825.00
2024-01-22T08:15:19.874Z,95824.00
2024-01-22T08:16:19.889Z,95825.00
2024-01-22T08:17:19.873Z,95828.00
2024-01-22T08:18:19.964Z,95828.00
2024-01-22T08:19:19.976Z,95826.00
2024-01-22T08:20:20.432Z,95828.00
2024-01-22T08:21:19.965Z,95825.00
2024-01-22T08:22:19.876Z,95822.00
2024-01-22T08:23:19.853Z,95816.00
2024-01-22T08:24:19.914Z,95819.00
2024-01-22T08:25:19.869Z,95825.00
2024-01-22T08:26:19.844Z,95821.00
2024-01-22T08:27:19.965Z,95813.00
2024-01-22T08:28:19.978Z,95812.00
2024-01-22T08:29:20.045Z,95820.00
2024-01-22T08:30:20.166Z,95814.00
2024-01-22T08:31:21.100Z,95811.00
2024-01-22T08:32:20.181Z,95817.00
2024-01-22T08:33:20.477Z,95816.00
2024-01-22T08:34:20.440Z,95813.00
2024-01-22T08:35:20.607Z,95811.00
2024-01-22T08:36:20.481Z,95811.00
2024-01-22T08:37:20.514Z,95809.00
2024-01-22T08:38:20.579Z,95812.00
2024-01-22T08:39:20.711Z,95812.00
2024-01-22T08:40:20.723Z,95818.00
2024-01-22T08:41:20.796Z,95813.00
2024-01-22T08:42:20.854Z,95810.00
2024-01-22T08:43:20.831Z,95808.00
2024-01-22T08:44:20.768Z,95814.00
2024-01-22T08:45:20.893Z,95812.00
2024-01-22T08:46:20.915Z,95805.00
2024-01-22T08:47:21.012Z,95802.00
2024-01-22T08:48:21.164Z,95802.00
2024-01-22T08:49:21.184Z,95798.00
2024-01-22T08:50:21.209Z,95801.00
2024-01-22T08:51:21.295Z,95804.00
2024-01-22T08:52:21.340Z,95808.00
2024-01-22T08:53:21.423Z,95810.00
2024-01-22T08:54:21.595Z,95811.00
2024-01-22T08:55:21.534Z,95804.00
2024-01-22T08:56:21.627Z,95796.00
2024-01-22T08:57:21.748Z,95795.00
2024-01-22T08:58:21.789Z,95797.00
2024-01-22T08:59:21.804Z,95802.00
2024-01-22T09:00:21.998Z,95804.00
2024-01-22T09:01:22.009Z,95802.00
2024-01-22T09:02:22.009Z,95797.00
2024-01-22T09:03:22.090Z,95792.00
2024-01-22T09:04:22.180Z,95791.00
2024-01-22T09:05:22.273Z,95796.00
2024-01-22T09:06:22.305Z,95799.00
2024-01-22T09:07:22.328Z,95795.00
2024-01-22T09:08:22.393Z,95790.00
2024-01-22T09:09:22.528Z,95789.00
2024-01-22T09:10:22.527Z,95788.00
2024-01-22T09:11:22.622Z,95789.00
2024-01-22T09:12:22.746Z,95791.00
2024-01-22T09:13:22.749Z,95792.00
2024-01-22T09:14:22.806Z,95793.00
2024-01-22T09:15:22.933Z,95781.00
2024-01-22T09:16:22.967Z,95781.00
2024-01-22T09:17:22.996Z,95780.00
2024-01-22T09:18:23.183Z,95777.00
2024-01-22T09:19:23.183Z,95780.00
2024-01-22T09:20:23.212Z,95776.00
2024-01-22T09:21:23.244Z,95778.00
2024-01-22T09:22:23.281Z,95775.00
2024-01-22T09:23:23.423Z,95766.00
2024-01-22T09:24:23.413Z,95768.00
2024-01-22T09:25:23.480Z,95773.00
2024-01-22T09:26:23.543Z,95775.00
2024-01-22T09:27:23.633Z,95780.00
2024-01-22T09:28:23.689Z,95776.00
2024-01-22T09:29:23.749Z,95774.00
2024-01-22T09:30:23.834Z,95769.00
2024-01-22T09:31:23.831Z,95765.00
2024-01-22T09:32:23.974Z,95770.00
2024-01-22T09:33:24.021Z,95783.00
2024-01-22T09:34:24.146Z,95780.00
2024-01-22T09:35:24.131Z,95782.00
2024-01-22T09:36:24.177Z,95780.00
2024-01-22T09:37:24.236Z,95782.00
2024-01-22T09:38:24.329Z,95773.00
2024-01-22T09:39:24.370Z,95767.00
2024-01-22T09:40:28.452Z,95770.00
2024-01-22T09:41:25.466Z,95775.00
2024-01-22T09:42:24.479Z,95777.00
2024-01-22T09:43:24.431Z,95773.00
2024-01-22T09:44:24.410Z,95770.00
2024-01-22T09:45:24.427Z,95771.00
2024-01-22T09:46:24.422Z,95771.00
2024-01-22T09:47:24.432Z,95774.00
2024-01-22T09:48:24.495Z,95777.00
2024-01-22T09:49:24.620Z,95776.00
2024-01-22T09:50:24.421Z,95774.00
2024-01-22T09:51:24.457Z,95775.00
2024-01-22T09:52:31.106Z,95773.00
2024-01-22T09:53:24.481Z,95767.00
2024-01-22T09:54:24.520Z,95756.00
2024-01-22T09:55:24.430Z,95756.00
2024-01-22T09:56:24.438Z,95760.00
2024-01-22T09:57:24.513Z,95766.00
2024-01-22T09:58:24.420Z,95761.00
2024-01-22T09:59:24.409Z,95754.00
2024-01-22T10:00:24.422Z,95753.00
2024-01-22T10:01:24.429Z,95752.00
2024-01-22T10:02:24.462Z,95751.00
2024-01-22T10:03:24.752Z,95752.00
2024-01-22T10:04:24.505Z,95751.00
2024-01-22T10:05:24.564Z,95754.00
2024-01-22T10:06:24.487Z,95751.00
2024-01-22T10:07:24.425Z,95755.00
2024-01-22T10:08:24.435Z,95746.00
2024-01-22T10:09:24.534Z,95746.00
2024-01-22T10:10:24.466Z,95740.00
2024-01-22T10:11:24.435Z,95741.00
2024-01-22T10:12:24.457Z,95742.00
2024-01-22T10:13:24.445Z,95738.00
2024-01-22T10:14:24.458Z,95744.00
2024-01-22T10:15:24.602Z,95747.00
2024-01-22T10:16:24.445Z,95744.00
2024-01-22T10:17:24.504Z,95740.00
2024-01-22T10:18:24.525Z,95740.00
2024-01-22T10:19:24.544Z,95737.00
2024-01-22T10:20:24.463Z,95732.00
2024-01-22T10:21:24.603Z,95730.00
2024-01-22T10:22:24.435Z,95727.00
2024-01-22T10:23:24.479Z,95727.00
2024-01-22T10:24:24.507Z,95723.00
2024-01-22T10:25:24.467Z,95719.00
2024-01-22T10:26:24.460Z,95721.00
2024-01-22T10:27:24.557Z,95722.00
2024-01-22T10:28:24.454Z,95719.00
2024-01-22T10:29:24.463Z,95716.00
2024-01-22T10:30:24.536Z,95715.00
2024-01-22T10:31:24.424Z,95713.00
2024-01-22T10:32:24.455Z,95703.00
2024-01-22T10:33:24.625Z,95699.00
2024-01-22T10:34:24.525Z,95699.00
2024-01-22T10:35:24.457Z,95697.00
2024-01-22T10:36:24.513Z,95691.00
2024-01-22T10:37:24.441Z,95694.00
2024-01-22T10:38:24.485Z,95696.00
2024-01-22T10:39:24.502Z,95692.00
2024-01-22T10:40:24.459Z,95687.00
2024-01-22T10:41:24.484Z,95683.00
2024-01-22T10:42:24.517Z,95677.00
2024-01-22T10:43:24.488Z,95672.00
2024-01-22T10:44:24.468Z,95670.00
2024-01-22T10:45:24.669Z,95663.00
2024-01-22T10:46:24.500Z,95657.00
2024-01-22T10:47:24.502Z,95660.00
2024-01-22T10:48:32.349Z,95657.00
2024-01-22T10:49:25.593Z,95660.00
2024-01-22T10:50:24.645Z,95658.00
2024-01-22T10:51:24.516Z,95654.00
2024-01-22T10:52:24.463Z,95645.00
2024-01-22T10:53:24.491Z,95641.00
2024-01-22T10:54:24.503Z,95636.00
2024-01-22T10:55:24.568Z,95638.00
2024-01-22T10:56:24.463Z,95640.00
2024-01-22T10:57:24.507Z,95633.00
2024-01-22T10:58:24.494Z,95627.00
2024-01-22T10:59:24.462Z,95626.00
2024-01-22T11:00:24.495Z,95626.00
2024-01-22T11:01:24.626Z,95627.00
2024-01-22T11:02:24.474Z,95627.00
2024-01-22T11:03:24.526Z,95624.00
2024-01-22T11:04:24.533Z,95623.00
2024-01-22T11:05:24.540Z,95616.00
2024-01-22T11:06:24.634Z,95614.00
2024-01-22T11:07:24.481Z,95616.00
2024-01-22T11:08:24.516Z,95615.00
2024-01-22T11:09:24.554Z,95613.00
2024-01-22T11:10:24.482Z,95612.00
2024-01-22T11:11:24.509Z,95615.00
2024-01-22T11:12:24.532Z,95604.00
2024-01-22T11:13:24.512Z,95606.00
2024-01-22T11:14:24.483Z,95611.00
2024-01-22T11:15:24.567Z,95610.00
2024-01-22T11:16:24.656Z,95605.00
2024-01-22T11:17:24.516Z,95595.00
2024-01-22T11:18:24.616Z,95588.00
2024-01-22T11:19:24.670Z,95584.00
2024-01-22T11:20:24.561Z,95583.00
2024-01-22T11:21:24.625Z,95579.00
2024-01-22T11:22:24.729Z,95577.00
2024-01-22T11:23:24.798Z,95579.00
2024-01-22T11:24:24.938Z,95578.00
2024-01-22T11:25:24.896Z,95580.00
2024-01-22T11:26:24.985Z,95572.00
2024-01-22T11:27:25.122Z,95568.00
2024-01-22T11:28:25.124Z,95564.00
2024-01-22T11:29:25.163Z,95568.00
2024-01-22T11:30:25.311Z,95565.00
2024-01-22T11:31:25.269Z,95569.00
2024-01-22T11:32:25.400Z,95561.00
2024-01-22T11:33:25.652Z,95556.00
2024-01-22T11:34:25.510Z,95549.00
2024-01-22T11:35:25.819Z,95550.00
2024-01-22T11:36:25.698Z,95557.00
2024-01-22T11:37:25.671Z,95554.00
2024-01-22T11:38:25.725Z,95549.00
2024-01-22T11:39:25.833Z,95550.00
2024-01-22T11:40:25.811Z,95545.00
2024-01-22T11:41:25.880Z,95536.00
2024-01-22T11:42:25.931Z,95529.00
2024-01-22T11:43:25.991Z,95527.00
2024-01-22T11:44:25.989Z,95530.00
2024-01-22T11:45:30.233Z,95526.00